aviador You're here:

KLXT Decoded Metar

LEES SUMMIT MUNI in MO, USA
Report Time2017-10-21 14:53:00
UTC Time2017-10-21 15:47:25
Flight Rules mvfr MVFR
Wind190° at 21 Gusting to 29 kt
W.Decomp.*RWY 18: 20.8 kt HW 2.9 kt RCW
RWY 11: 4.4 kt HW 20.5 kt RCW
W.Rank190° ranks 1
Current wind is above 190° avg. (9.8)
Visibility9999 m
Phenomena:N/A
Clouds:Overcast 019 Hf
Expected CloudBase > 1,200 ft AGL from Temp-Dew spread
Ceiling1,900 ft
Temp19°C (ISA +6)
Dew Point16°C (83% RH)
AAT13.4°C
QNH1012 hPa
Density Alt1,985 ft
Elevation1,004 ft
Report Wrong Elevation
Raw Report
KLXT 211453Z AUTO 19021G29KT 10SM OVC019 19/16 A2987 RMK AO2 PK
WND 18029/1452 SLP111 T01940156 53005=

Extra information for KLXT:More info

Metar Taf Metar & Taf Last 4 Metars F.Rules Stats Wind Profile Meteogram Temp Stats Airport Information Weather charts Add Link Nearby VenuesMetar ALERT Operation Metar Decoded Social comments

AIRNAV info for KLXT